Time;durP1;ratioP1;P1;durP2;ratioP2;P2;SDS_P1;SDS_P2;PMS_P1;PMS_P2;Temp;Humidity;BMP_temperature;BMP_pressure;BME280_temperature;BME280_humidity;BME280_pressure;Samples;Min_cycle;Max_cycle;Signal;HPM_P1;HPM_P2
2022/04/11 00:03:56;;;;;;;4.05;1.95;;;;;;;3.53;68.82;100519.09;10196874;29;20565;-67
2022/04/11 00:08:58;;;;;;;3.83;2.03;;;;;;;3.36;69.76;100521.63;10196779;29;20056;-67
2022/04/11 00:14:01;;;;;;;5.50;2.00;;;;;;;3.42;69.72;100510.41;10212983;29;20182;-67
2022/04/11 00:19:03;;;;;;;3.30;1.65;;;;;;;3.26;70.49;100509.44;10213614;29;20051;-67
2022/04/11 00:24:05;;;;;;;2.95;1.95;;;;;;;3.38;70.16;100504.31;10213294;29;20048;-67
2022/04/11 00:29:06;;;;;;;2.05;1.63;;;;;;;3.45;69.86;100498.31;10214122;29;20051;-67
2022/04/11 00:34:08;;;;;;;4.47;1.83;;;;;;;3.43;70.22;100502.59;10215769;29;20050;-67
2022/04/11 00:39:10;;;;;;;5.68;1.77;;;;;;;3.36;70.41;100510.34;10221021;29;20553;-67
2022/04/11 00:44:11;;;;;;;3.78;2.00;;;;;;;3.39;70.19;100508.66;10220476;29;20055;-67
2022/04/11 00:49:13;;;;;;;4.60;1.92;;;;;;;3.31;70.58;100505.13;10202896;29;20138;-67
2022/04/11 00:54:15;;;;;;;3.63;2.33;;;;;;;3.47;70.29;100504.38;10202793;29;20099;-67
2022/04/11 00:59:17;;;;;;;3.15;1.73;;;;;;;3.37;70.68;100514.72;10221271;29;20051;-67
2022/04/11 01:04:26;;;;;;;3.90;2.17;;;;;;;3.35;70.77;100509.50;10219879;29;20107;-67
2022/04/11 01:09:28;;;;;;;3.97;1.90;;;;;;;3.46;70.08;100502.63;10219342;29;20051;-67
2022/04/11 01:14:29;;;;;;;4.03;2.25;;;;;;;3.40;70.53;100507.78;10202324;29;20070;-67
2022/04/11 01:19:31;;;;;;;5.18;2.00;;;;;;;3.53;70.52;100506.13;10213961;23;20087;-73
2022/04/11 01:24:34;;;;;;;4.22;1.67;;;;;;;3.45;70.54;100515.59;10219852;29;20048;-74
2022/04/11 01:29:37;;;;;;;3.20;1.60;;;;;;;3.46;70.16;100515.63;10221179;29;20091;-72
2022/04/11 01:34:39;;;;;;;2.90;1.40;;;;;;;3.37;70.89;100512.13;10220023;29;20124;-72
2022/04/11 01:39:41;;;;;;;3.72;1.98;;;;;;;3.56;70.31;100519.13;10204411;29;20131;-72
2022/04/11 01:44:43;;;;;;;2.60;1.45;;;;;;;3.44;70.84;100522.53;10221183;29;20055;-72
2022/04/11 01:49:45;;;;;;;2.92;1.77;;;;;;;3.39;71.12;100511.25;10218767;29;20047;-73
2022/04/11 01:54:47;;;;;;;4.63;1.85;;;;;;;3.36;71.05;100518.16;10202809;29;20043;-74
2022/04/11 02:00:11;;;;;;;4.00;1.98;;;;;;;3.18;71.70;100522.38;10206349;29;20620;-73
2022/04/11 02:05:15;;;;;;;2.35;1.63;;;;;;;3.42;70.85;100524.25;10204735;29;20458;-74
2022/04/11 02:10:17;;;;;;;4.07;1.90;;;;;;;3.30;71.05;100532.00;10218596;29;20087;-73
2022/04/11 02:15:19;;;;;;;3.78;1.60;;;;;;;3.00;72.26;100533.53;10219293;29;20051;-73
2022/04/11 02:20:21;;;;;;;2.75;1.58;;;;;;;2.93;72.59;100536.09;10203544;29;20487;-73
2022/04/11 02:25:24;;;;;;;3.20;1.73;;;;;;;2.83;72.59;100537.72;10218107;29;20589;-73
2022/04/11 02:30:27;;;;;;;3.88;1.75;;;;;;;2.67;73.36;100543.66;10219038;29;20055;-73
2022/04/11 02:35:28;;;;;;;3.80;1.80;;;;;;;2.47;74.33;100546.06;10217935;29;20048;-73
2022/04/11 02:40:30;;;;;;;4.80;1.60;;;;;;;2.69;73.72;100539.34;10217030;29;20055;-73
2022/04/11 02:45:52;;;;;;;3.78;2.00;;;;;;;2.69;73.12;100529.81;10217791;29;20051;-73
2022/04/11 02:51:00;;;;;;;3.47;1.80;;;;;;;2.32;74.62;100536.44;10218851;29;20048;-73
2022/04/11 02:56:10;;;;;;;4.10;1.95;;;;;;;2.26;74.98;100531.19;10216408;29;20095;-74
2022/04/11 03:01:12;;;;;;;2.78;1.90;;;;;;;2.06;75.79;100530.09;10217790;29;20111;-73
2022/04/11 03:06:16;;;;;;;4.40;2.20;;;;;;;1.74;77.88;100530.63;10217536;29;20040;-73
2022/04/11 03:11:20;;;;;;;3.60;2.50;;;;;;;2.03;77.95;100526.63;10204115;29;20081;-73
2022/04/11 03:16:22;;;;;;;3.55;2.20;;;;;;;1.79;77.89;100525.50;10217044;29;20048;-73
2022/04/11 03:21:25;;;;;;;3.70;1.90;;;;;;;1.66;78.59;100529.66;10216607;29;20074;-73
2022/04/11 03:26:36;;;;;;;3.70;2.05;;;;;;;1.74;77.73;100528.91;10217141;29;20055;-73
2022/04/11 03:31:41;;;;;;;4.53;1.95;;;;;;;2.00;76.38;100526.59;10216246;29;20058;-73
2022/04/11 03:36:45;;;;;;;4.53;2.13;;;;;;;1.95;76.82;100530.00;10218655;29;20098;-73
2022/04/11 03:41:47;;;;;;;2.88;2.00;;;;;;;1.79;77.76;100525.50;10200757;29;20082;-73
2022/04/11 03:46:54;;;;;;;2.90;2.00;;;;;;;1.65;78.27;100533.09;10216746;29;20035;-73
2022/04/11 03:52:02;;;;;;;;;;;;;;;1.57;78.98;100524.34;10216788;29;20040;-73
2022/04/11 03:57:04;;;;;;;3.75;2.10;;;;;;;1.37;79.26;100524.09;10200084;29;19970;-73
2022/04/11 04:02:06;;;;;;;4.60;2.42;;;;;;;1.33;80.11;100523.19;10215997;29;20386;-73
2022/04/11 04:07:10;;;;;;;3.67;2.33;;;;;;;1.43;78.68;100527.66;10215029;29;20048;-72
2022/04/11 04:12:12;;;;;;;5.20;2.47;;;;;;;1.53;78.73;100515.66;10221488;29;20425;-73
2022/04/11 04:17:18;;;;;;;3.45;2.47;;;;;;;1.31;79.15;100511.94;10222532;29;20421;-73
2022/04/11 04:22:29;;;;;;;5.18;2.55;;;;;;;1.51;78.56;100515.66;10221305;29;20052;-73
2022/04/11 04:27:31;;;;;;;4.63;2.60;;;;;;;1.45;78.19;100523.34;10221920;29;20059;-73
2022/04/11 04:32:33;;;;;;;4.15;2.20;;;;;;;1.42;78.33;100531.09;10222012;29;20178;-72
2022/04/11 04:37:35;;;;;;;4.60;2.35;;;;;;;1.25;79.28;100532.56;10223299;29;20043;-73
2022/04/11 04:42:38;;;;;;;5.75;3.22;;;;;;;1.28;79.32;100537.78;10222236;29;20476;-74
2022/04/11 04:47:44;;;;;;;8.30;3.30;;;;;;;1.27;79.77;100528.28;10222282;29;20098;-73
2022/04/11 04:52:46;;;;;;;4.95;3.22;;;;;;;1.42;78.81;100523.31;10220910;29;20391;-73
2022/04/11 04:57:48;;;;;;;4.15;3.35;;;;;;;1.37;78.95;100527.53;10221913;29;20091;-72
2022/04/11 05:02:50;;;;;;;3.75;3.08;;;;;;;1.28;79.32;100527.41;10220130;29;20047;-73
2022/04/11 05:07:56;;;;;;;5.13;4.63;;;;;;;1.34;79.97;100537.00;10205790;29;20138;-73
2022/04/11 05:13:02;;;;;;;6.13;4.22;;;;;;;1.40;80.43;100535.38;10221096;29;20401;-73
2022/04/11 05:18:04;;;;;;;7.72;3.10;;;;;;;1.64;79.60;100533.94;10223246;29;20131;-72
2022/04/11 05:23:06;;;;;;;4.10;2.75;;;;;;;1.75;78.08;100534.94;10220522;29;20039;-72
2022/04/11 05:28:11;;;;;;;4.45;2.20;;;;;;;2.22;76.13;100529.41;10220092;29;20056;-74
2022/04/11 05:33:29;;;;;;;4.05;2.50;;;;;;;2.32;75.95;100528.66;10221140;29;20052;-74
2022/04/11 05:38:33;;;;;;;3.03;2.08;;;;;;;2.30;75.43;100526.88;10220328;29;20055;-72
2022/04/11 05:43:35;;;;;;;4.38;2.20;;;;;;;2.68;74.14;100538.47;10221634;29;20040;-72
2022/04/11 05:48:36;;;;;;;4.70;2.40;;;;;;;3.34;73.35;100532.88;10222031;29;20450;-72
2022/04/11 05:53:40;;;;;;;6.95;2.70;;;;;;;3.92;69.67;100536.59;10220547;29;20047;-73
2022/04/11 05:58:42;;;;;;;7.60;2.75;;;;;;;4.03;68.91;100537.50;10219825;29;20409;-73
2022/04/11 06:03:45;;;;;;;4.20;2.10;;;;;;;4.61;66.00;100539.34;10221168;29;20039;-73
2022/04/11 06:08:46;;;;;;;3.63;1.20;;;;;;;4.82;65.94;100541.06;10219601;29;20048;-73
2022/04/11 06:13:49;;;;;;;6.85;1.77;;;;;;;5.02;65.31;100535.84;10218499;29;20054;-74
2022/04/11 06:18:51;;;;;;;4.15;1.90;;;;;;;5.49;63.33;100546.19;10218191;29;20095;-73
2022/04/11 06:23:53;;;;;;;5.47;1.90;;;;;;;6.28;60.30;100531.91;10218030;29;20050;-72
2022/04/11 06:28:57;;;;;;;4.07;1.50;;;;;;;6.63;58.77;100538.66;10218320;29;20445;-72
2022/04/11 06:33:59;;;;;;;4.25;1.45;;;;;;;7.04;56.61;100534.84;10217739;29;20054;-74
2022/04/11 06:39:05;;;;;;;3.42;1.10;;;;;;;6.99;56.04;100526.16;10216922;29;20055;-73
2022/04/11 06:44:12;;;;;;;4.57;1.55;;;;;;;6.82;56.47;100528.94;10201777;29;20071;-74
2022/04/11 06:49:24;;;;;;;4.15;1.00;;;;;;;6.86;56.20;100533.22;10217647;29;20044;-74
2022/04/11 06:54:32;;;;;;;4.18;1.85;;;;;;;6.77;56.61;100530.69;10217966;29;20497;-73
2022/04/11 06:59:33;;;;;;;2.83;1.10;;;;;;;7.07;55.99;100525.19;10218056;29;20059;-74
2022/04/11 07:04:35;;;;;;;3.60;1.05;;;;;;;7.21;55.20;100525.06;10218133;29;20046;-72
2022/04/11 07:09:37;;;;;;;3.25;0.98;;;;;;;7.26;53.49;100527.63;10219031;29;20054;-73
2022/04/11 07:14:38;;;;;;;2.92;1.13;;;;;;;7.30;52.83;100530.22;10218708;29;20048;-72
2022/04/11 07:19:40;;;;;;;2.58;0.82;;;;;;;7.59;53.14;100536.88;10230904;23;20108;-72
2022/04/11 07:24:42;;;;;;;4.03;0.98;;;;;;;7.69;50.98;100540.25;10217371;29;20043;-72
2022/04/11 07:29:44;;;;;;;3.65;1.00;;;;;;;7.72;51.34;100543.69;10217380;29;20051;-73
2022/04/11 07:34:45;;;;;;;2.60;0.80;;;;;;;7.88;49.14;100548.72;10217588;29;20102;-73
2022/04/11 07:39:47;;;;;;;4.13;0.90;;;;;;;7.98;49.92;100540.75;10216006;29;20086;-73
2022/04/11 07:44:48;;;;;;;5.32;0.95;;;;;;;8.21;49.03;100547.44;10217795;29;20044;-73
2022/04/11 07:49:50;;;;;;;3.15;1.00;;;;;;;8.61;48.59;100546.88;10216820;29;20181;-73
2022/04/11 07:54:52;;;;;;;3.70;0.60;;;;;;;8.53;46.36;100549.59;10216497;29;20054;-73
2022/04/11 07:59:54;;;;;;;3.10;0.80;;;;;;;8.76;48.36;100538.75;10217574;29;20206;-73
2022/04/11 08:05:00;;;;;;;2.38;0.90;;;;;;;9.42;46.21;100548.97;10219077;29;20099;-73
2022/04/11 08:10:04;;;;;;;1.77;0.70;;;;;;;9.41;45.29;100547.22;10215560;29;20048;-74
2022/04/11 08:15:07;;;;;;;3.03;0.80;;;;;;;9.66;45.85;100544.16;10198913;29;20151;-72
2022/04/11 08:20:09;;;;;;;1.90;0.70;;;;;;;9.97;43.08;100544.38;10216470;29;20054;-72
2022/04/11 08:25:16;;;;;;;2.72;0.80;;;;;;;9.93;45.53;100540.09;10219928;29;20047;-72
2022/04/11 08:30:19;;;;;;;3.40;0.60;;;;;;;10.26;41.15;100542.00;10214952;29;20048;-73
2022/04/11 08:35:22;;;;;;;10.40;0.98;;;;;;;10.33;41.78;100540.97;10214655;29;20047;-73
2022/04/11 08:40:24;;;;;;;2.17;0.63;;;;;;;10.32;41.75;100548.91;10214319;29;20498;-74
2022/04/11 08:45:27;;;;;;;1.95;0.52;;;;;;;10.32;42.17;100541.03;10217046;29;20413;-75
2022/04/11 08:50:30;;;;;;;2.25;0.70;;;;;;;10.73;43.08;100529.53;10220902;29;20107;-76
2022/04/11 08:55:32;;;;;;;3.08;0.77;;;;;;;10.99;42.54;100533.28;10217316;29;20151;-76
2022/04/11 09:00:33;;;;;;;1.92;0.47;;;;;;;11.34;41.04;100527.94;10222729;29;20051;-72
2022/04/11 09:05:35;;;;;;;2.63;0.52;;;;;;;11.35;41.30;100523.53;10222727;29;20048;-72
2022/04/11 09:10:37;;;;;;;1.58;0.50;;;;;;;11.61;34.98;100520.19;10223779;29;20048;-73
2022/04/11 09:15:45;;;;;;;1.73;0.40;;;;;;;11.49;36.37;100520.53;10204351;29;20143;-71
2022/04/11 09:20:50;;;;;;;2.78;0.50;;;;;;;11.41;36.88;100523.38;10221078;29;20425;-71
2022/04/11 09:25:51;;;;;;;1.17;0.60;;;;;;;11.57;36.01;100522.03;10221363;29;20138;-72
2022/04/11 09:30:53;;;;;;;2.30;0.75;;;;;;;11.42;35.25;100513.69;10223943;29;20051;-72
2022/04/11 09:35:55;;;;;;;2.35;0.85;;;;;;;11.58;35.53;100513.22;10220809;29;20050;-72
2022/04/11 09:40:57;;;;;;;2.35;0.60;;;;;;;12.06;36.83;100502.22;10219169;29;20062;-72
2022/04/11 09:46:02;;;;;;;1.33;0.50;;;;;;;11.98;34.74;100498.94;10220352;29;20485;-72
2022/04/11 09:51:13;;;;;;;2.20;0.65;;;;;;;12.10;34.03;100505.63;10203801;29;20071;-71
2022/04/11 09:56:16;;;;;;;2.50;0.60;;;;;;;12.40;35.73;100503.81;10221929;29;20074;-71
2022/04/11 10:01:19;;;;;;;1.50;0.70;;;;;;;12.30;33.66;100497.06;10219250;29;20048;-73
2022/04/11 10:06:21;;;;;;;1.58;0.50;;;;;;;12.74;31.97;100486.88;10219207;29;20136;-72
2022/04/11 10:11:23;;;;;;;1.05;0.57;;;;;;;12.87;33.17;100496.09;10202071;29;20110;-72
2022/04/11 10:16:25;;;;;;;1.77;0.47;;;;;;;12.63;31.59;100482.81;10221724;29;20047;-72
2022/04/11 10:21:28;;;;;;;0.68;0.43;;;;;;;12.71;32.40;100481.72;10218975;29;20058;-72
2022/04/11 10:26:46;;;;;;;1.17;0.50;;;;;;;12.26;31.55;100475.25;10201716;29;20039;-72
2022/04/11 10:32:03;;;;;;;;;;;;;;;13.12;33.22;100478.50;10218967;29;20050;-73
2022/04/11 10:37:05;;;;;;;1.00;0.47;;;;;;;13.45;30.69;100472.09;10222284;29;19969;-72
2022/04/11 10:42:09;;;;;;;2.22;0.50;;;;;;;13.35;31.30;100468.94;10217572;29;20054;-72
2022/04/11 10:47:11;;;;;;;0.65;0.38;;;;;;;13.45;32.87;100472.09;10217254;29;20050;-72
2022/04/11 10:52:33;;;;;;;2.80;0.40;;;;;;;13.44;27.51;100465.09;10217139;29;20051;-74
2022/04/11 10:57:45;;;;;;;2.33;0.45;;;;;;;13.65;30.10;100463.44;10219594;29;20051;-72
2022/04/11 11:02:50;;;;;;;1.13;0.40;;;;;;;13.05;29.25;100469.06;10217781;29;20085;-72
2022/04/11 11:08:09;;;;;;;2.00;0.70;;;;;;;13.32;29.30;100440.84;10217031;29;20047;-72
2022/04/11 11:13:41;;;;;;;1.90;0.40;;;;;;;12.38;29.04;100437.06;10217720;29;20043;-72
2022/04/11 11:18:50;;;;;;;1.10;0.50;;;;;;;12.94;32.04;100444.00;10215551;29;20111;-72
2022/04/11 11:24:06;;;;;;;13.90;1.92;;;;;;;12.89;30.15;100438.88;10200835;29;20095;-72
2022/04/11 11:29:16;;;;;;;0.90;0.50;;;;;;;13.41;29.73;100415.88;10219263;29;20378;-73
2022/04/11 11:34:24;;;;;;;2.05;0.50;;;;;;;13.54;29.71;100421.56;10217969;29;20086;-73
2022/04/11 11:39:26;;;;;;;;;;;;;;;14.39;30.32;100417.34;10217208;29;20058;-73
2022/04/11 11:44:30;;;;;;;3.28;0.70;;;;;;;14.00;28.13;100409.25;10218368;29;19933;-74
2022/04/11 11:49:43;;;;;;;3.15;0.60;;;;;;;13.80;31.20;100402.09;10217066;29;20490;-73
2022/04/11 11:54:47;;;;;;;1.27;0.47;;;;;;;13.93;29.41;100397.19;10215875;29;20139;-72
2022/04/11 11:59:59;;;;;;;1.50;0.60;;;;;;;13.59;30.57;100398.47;10216353;29;20413;-72
2022/04/11 12:05:01;;;;;;;1.30;0.63;;;;;;;13.58;30.03;100396.78;10219822;29;20046;-73
2022/04/11 12:10:03;;;;;;;1.35;0.57;;;;;;;13.74;30.88;100397.06;10216664;29;20048;-73
2022/04/11 12:15:08;;;;;;;1.48;0.57;;;;;;;13.78;31.10;100381.03;10216298;29;20043;-73
2022/04/11 12:20:19;;;;;;;1.55;0.82;;;;;;;13.46;32.14;100390.19;10215831;29;20095;-73
2022/04/11 12:25:27;;;;;;;1.70;0.50;;;;;;;14.10;29.64;100377.06;10217648;29;20051;-73
2022/04/11 12:30:28;;;;;;;1.98;0.80;;;;;;;13.68;31.59;100357.66;10219074;29;20040;-74
2022/04/11 12:35:30;;;;;;;1.08;0.50;;;;;;;13.38;32.56;100361.44;10221651;29;20056;-73
2022/04/11 12:40:43;;;;;;;1.95;0.70;;;;;;;13.66;30.37;100355.06;10222739;29;20052;-73
2022/04/11 12:46:05;;;;;;;2.25;0.95;;;;;;;13.28;31.71;100351.25;10225028;29;20059;-73
2022/04/11 12:51:11;;;;;;;1.88;0.70;;;;;;;13.15;32.54;100345.56;10223908;29;20090;-74
2022/04/11 12:56:13;;;;;;;1.60;0.73;;;;;;;13.38;31.78;100342.94;10223538;29;20398;-72
2022/04/11 13:01:14;;;;;;;2.10;0.63;;;;;;;13.04;32.26;100331.91;10220712;29;20118;-74
2022/04/11 13:06:16;;;;;;;1.15;0.93;;;;;;;12.88;32.80;100313.13;10222190;29;20106;-73
2022/04/11 13:11:17;;;;;;;1.20;0.60;;;;;;;13.11;33.06;100307.88;10225153;29;20110;-73
2022/04/11 13:21:39;;;;;;;1.48;0.60;;;;;;;12.79;32.36;100316.09;10224843;23;20067;-71
2022/04/11 13:26:42;;;;;;;1.90;0.80;;;;;;;12.58;31.75;100300.16;10184920;29;20055;-72
2022/04/11 13:31:43;;;;;;;2.25;0.80;;;;;;;12.71;33.91;100294.44;10178489;29;20407;-72
2022/04/11 13:36:45;;;;;;;3.28;0.82;;;;;;;12.86;31.46;100293.88;10205788;29;20063;-72
2022/04/11 13:42:05;;;;;;;1.95;0.60;;;;;;;12.71;32.47;100286.53;10223222;29;20129;-72
2022/04/11 13:47:07;;;;;;;1.25;0.50;;;;;;;12.26;32.13;100276.69;10223572;29;20047;-71
2022/04/11 13:52:10;;;;;;;1.77;0.60;;;;;;;12.41;32.68;100272.66;10205872;29;20382;-71
2022/04/11 13:57:12;;;;;;;1.52;0.80;;;;;;;12.46;33.23;100266.31;10223839;29;20044;-71
2022/04/11 14:02:34;;;;;;;1.95;0.80;;;;;;;12.24;33.31;100262.72;10228214;29;20122;-71
2022/04/11 14:07:36;;;;;;;2.03;0.80;;;;;;;12.08;33.82;100251.81;10224265;29;20470;-71
2022/04/11 14:12:43;;;;;;;1.10;0.60;;;;;;;12.32;33.37;100260.66;10225301;29;20494;-70
2022/04/11 14:17:45;;;;;;;1.83;0.60;;;;;;;12.24;33.55;100250.38;10224604;29;20047;-70
2022/04/11 14:22:47;;;;;;;1.67;0.90;;;;;;;12.14;32.83;100246.38;10222534;29;20489;-71
2022/04/11 14:27:48;;;;;;;1.92;0.60;;;;;;;12.25;33.78;100248.59;10222513;29;20138;-72
2022/04/11 14:32:50;;;;;;;2.67;0.70;;;;;;;12.27;33.32;100242.38;10223120;29;20058;-73
2022/04/11 14:37:52;;;;;;;1.88;0.90;;;;;;;12.19;33.70;100238.28;10221392;29;20047;-71
2022/04/11 14:42:56;;;;;;;3.33;0.90;;;;;;;12.15;33.85;100236.69;10220338;29;20565;-72
2022/04/11 14:47:58;;;;;;;1.02;0.82;;;;;;;12.24;33.61;100225.81;10221766;29;20052;-71
2022/04/11 14:53:00;;;;;;;1.75;0.68;;;;;;;12.03;34.51;100224.78;10222616;29;20044;-71
2022/04/11 14:58:18;;;;;;;2.13;0.80;;;;;;;12.12;34.22;100225.31;10209057;29;20062;-72
2022/04/11 15:03:20;;;;;;;2.60;0.90;;;;;;;12.14;33.98;100221.78;10220744;29;20052;-73
2022/04/11 15:08:22;;;;;;;1.35;0.70;;;;;;;12.09;34.34;100214.91;10221000;29;20052;-72
2022/04/11 15:13:23;;;;;;;3.05;0.80;;;;;;;11.93;35.00;100207.59;10220434;29;20386;-71
2022/04/11 15:18:25;;;;;;;1.35;0.80;;;;;;;11.82;34.74;100198.28;10220886;29;20040;-71
2022/04/11 15:23:28;;;;;;;1.48;0.70;;;;;;;12.00;34.30;100199.41;10204397;29;20051;-72
2022/04/11 15:28:30;;;;;;;1.17;0.95;;;;;;;11.85;34.57;100210.47;10222169;29;20047;-71
2022/04/11 15:33:32;;;;;;;1.30;0.65;;;;;;;11.73;35.05;100198.56;10221381;29;20134;-71
2022/04/11 15:38:34;;;;;;;2.13;0.60;;;;;;;11.80;35.08;100199.19;10222509;29;20460;-71
2022/04/11 15:43:35;;;;;;;1.80;0.80;;;;;;;11.80;35.09;100192.16;10219528;29;20039;-71
2022/04/11 15:48:37;;;;;;;1.13;0.80;;;;;;;11.71;35.07;100187.22;10221204;29;20052;-71
2022/04/11 15:53:38;;;;;;;2.13;0.75;;;;;;;11.48;35.46;100181.88;10222065;29;20048;-72
2022/04/11 15:58:40;;;;;;;1.55;0.90;;;;;;;11.48;35.50;100184.50;10221048;29;20054;-71
2022/04/11 16:03:42;;;;;;;1.58;0.80;;;;;;;11.54;35.39;100184.28;10221779;29;20541;-72
2022/04/11 16:08:43;;;;;;;1.58;1.00;;;;;;;11.49;35.34;100179.16;10213809;29;20086;-73
2022/04/11 16:13:45;;;;;;;2.55;1.73;;;;;;;11.28;36.52;100187.75;10229817;29;20075;-73
2022/04/11 16:18:47;;;;;;;1.55;0.88;;;;;;;11.16;35.97;100183.78;10231056;29;20051;-73
2022/04/11 16:23:48;;;;;;;1.95;0.80;;;;;;;11.11;36.37;100183.91;10229449;29;20038;-73
2022/04/11 16:28:52;;;;;;;1.20;1.00;;;;;;;11.01;36.91;100178.97;10230140;29;20039;-73
2022/04/11 16:33:53;;;;;;;2.33;1.00;;;;;;;11.07;36.62;100184.91;10228537;29;20387;-72
2022/04/11 16:38:55;;;;;;;3.00;1.38;;;;;;;10.92;36.56;100177.50;10226217;29;20103;-72
2022/04/11 16:44:04;;;;;;;2.90;0.90;;;;;;;10.99;37.03;100178.19;10228055;29;20409;-72
2022/04/11 16:49:05;;;;;;;2.67;0.80;;;;;;;11.00;36.89;100172.00;10225734;29;20040;-72
2022/04/11 16:54:07;;;;;;;1.95;0.82;;;;;;;11.01;36.63;100171.94;10226610;29;20047;-72
2022/04/11 16:59:09;;;;;;;1.20;0.77;;;;;;;10.81;37.31;100174.34;10225885;29;20075;-73
2022/04/11 17:04:10;;;;;;;2.05;1.00;;;;;;;10.55;37.40;100167.22;10227366;29;20102;-71
2022/04/11 17:09:13;;;;;;;2.40;0.90;;;;;;;10.49;38.02;100180.53;10224354;29;20047;-72
2022/04/11 17:14:16;;;;;;;2.90;1.30;;;;;;;10.50;37.29;100175.25;10225896;29;20059;-71
2022/04/11 17:19:17;;;;;;;3.03;1.05;;;;;;;10.34;37.47;100182.72;10224767;29;20067;-73
2022/04/11 17:24:20;;;;;;;1.30;1.20;;;;;;;10.27;37.94;100175.91;10226257;29;20036;-72
2022/04/11 17:29:21;;;;;;;2.70;1.48;;;;;;;10.13;38.06;100178.00;10225077;29;20048;-72
2022/04/11 17:34:24;;;;;;;5.18;2.45;;;;;;;10.11;38.16;100178.06;10226955;29;20071;-72
2022/04/11 17:39:26;;;;;;;3.08;1.50;;;;;;;9.99;39.54;100183.66;10226971;29;20075;-72
2022/04/11 17:44:28;;;;;;;1.90;1.20;;;;;;;10.05;39.17;100178.25;10227869;29;20044;-72
2022/04/11 17:49:30;;;;;;;2.17;1.15;;;;;;;9.73;39.59;100194.84;10224093;29;20422;-71
2022/04/11 17:54:33;;;;;;;2.45;1.00;;;;;;;9.80;39.67;100190.31;10223150;29;20050;-72
2022/04/11 17:59:35;;;;;;;3.03;1.35;;;;;;;9.75;39.55;100195.66;10222086;29;20056;-71
2022/04/11 18:04:37;;;;;;;2.13;1.20;;;;;;;9.35;40.53;100209.78;10223020;29;20078;-73
2022/04/11 18:09:39;;;;;;;3.13;1.48;;;;;;;9.24;40.46;100206.53;10222733;29;20055;-71
2022/04/11 18:14:41;;;;;;;2.20;1.30;;;;;;;9.32;41.78;100217.72;10223523;29;20051;-73
2022/04/11 18:19:43;;;;;;;2.63;1.38;;;;;;;9.38;44.43;100226.34;10208255;29;20533;-72
2022/04/11 18:24:44;;;;;;;2.30;1.60;;;;;;;8.76;44.23;100230.31;10222718;29;20115;-73
2022/04/11 18:35:08;;;;;;;6.28;2.30;;;;;;;8.23;48.40;100236.63;10219464;29;20052;-72
2022/04/11 18:40:11;;;;;;;5.93;2.35;;;;;;;8.29;48.99;100242.63;10218272;29;20052;-72
2022/04/11 18:45:13;;;;;;;4.72;2.30;;;;;;;8.03;49.87;100243.09;10229561;29;20515;-72
2022/04/11 18:50:15;;;;;;;3.80;1.75;;;;;;;7.89;50.76;100244.25;10259172;29;20110;-73
2022/04/11 18:55:16;;;;;;;11.02;2.40;;;;;;;7.93;49.49;100257.25;10262494;29;20074;-73
2022/04/11 19:00:18;;;;;;;4.35;2.10;;;;;;;7.95;49.36;100259.81;10262141;29;20051;-72
2022/04/11 19:05:20;;;;;;;6.13;2.83;;;;;;;7.54;50.04;100270.09;10245450;29;20050;-73
2022/04/11 19:10:24;;;;;;;3.90;2.20;;;;;;;7.80;51.70;100276.66;10261857;29;20043;-74
2022/04/11 19:15:26;;;;;;;4.55;2.42;;;;;;;7.45;53.09;100265.00;10250147;29;20043;-72
2022/04/11 19:20:27;;;;;;;6.57;2.90;;;;;;;7.32;52.05;100266.94;10221002;29;20055;-72
2022/04/11 19:25:29;;;;;;;5.57;3.85;;;;;;;7.33;52.08;100271.28;10221181;29;20549;-74
2022/04/11 19:30:31;;;;;;;9.55;5.22;;;;;;;7.25;52.65;100275.75;10203560;29;20079;-74
2022/04/11 19:35:34;;;;;;;6.28;4.90;;;;;;;6.71;53.64;100285.19;10220828;29;20406;-74
2022/04/11 19:40:37;;;;;;;17.45;9.43;;;;;;;6.90;54.21;100278.84;10219574;29;20048;-73
2022/04/11 19:45:39;;;;;;;8.68;6.88;;;;;;;7.01;53.68;100284.81;10221034;29;20474;-73
2022/04/11 19:50:41;;;;;;;8.05;5.25;;;;;;;6.65;55.03;100274.81;10221170;29;20047;-73
2022/04/11 19:55:43;;;;;;;8.02;6.03;;;;;;;6.36;56.44;100276.00;10204031;29;20095;-73
2022/04/11 20:00:45;;;;;;;7.30;5.07;;;;;;;6.47;56.77;100271.53;10218310;29;20047;-73
2022/04/11 20:05:46;;;;;;;9.55;4.60;;;;;;;6.44;56.62;100271.56;10218425;29;20052;-73
2022/04/11 20:10:48;;;;;;;5.53;3.55;;;;;;;6.32;55.82;100262.09;10219737;29;20132;-74
2022/04/11 20:15:50;;;;;;;7.35;4.03;;;;;;;5.90;57.14;100276.44;10218494;29;20414;-73
2022/04/11 20:20:52;;;;;;;10.40;4.43;;;;;;;6.20;57.26;100270.09;10200325;29;20410;-74
2022/04/11 20:25:53;;;;;;;4.90;3.60;;;;;;;6.05;56.78;100280.66;10217935;29;20102;-73
2022/04/11 20:30:55;;;;;;;7.85;4.25;;;;;;;5.92;57.24;100276.44;10216924;29;20545;-74
2022/04/11 20:35:57;;;;;;;5.90;3.80;;;;;;;5.98;57.22;100287.69;10218398;29;20084;-73
2022/04/11 20:40:59;;;;;;;5.95;3.63;;;;;;;5.73;57.22;100288.75;10219581;29;20085;-74
2022/04/11 20:46:01;;;;;;;4.30;3.38;;;;;;;5.45;58.05;100286.34;10221543;29;20039;-74
2022/04/11 20:51:03;;;;;;;4.47;3.60;;;;;;;5.45;58.41;100293.31;10205451;29;20054;-73
2022/04/11 20:56:11;;;;;;;5.13;3.42;;;;;;;5.62;58.50;100295.78;10228418;29;20103;-73
2022/04/11 21:01:13;;;;;;;6.07;3.13;;;;;;;5.46;59.26;100292.44;10226712;29;20040;-73
2022/04/11 21:06:16;;;;;;;4.50;3.22;;;;;;;5.46;59.68;100292.44;10231267;29;20382;-72
2022/04/11 21:11:18;;;;;;;4.00;3.10;;;;;;;5.35;58.96;100289.88;10231715;29;20058;-73
2022/04/11 21:16:20;;;;;;;3.72;3.00;;;;;;;5.21;59.27;100297.78;10213123;29;20048;-72
2022/04/11 21:21:22;;;;;;;3.85;3.22;;;;;;;5.17;60.24;100292.59;10228406;29;20063;-73
2022/04/11 21:26:23;;;;;;;3.95;3.08;;;;;;;4.99;60.70;100283.13;10225882;29;20047;-73
2022/04/11 21:31:25;;;;;;;5.20;3.47;;;;;;;4.69;61.82;100291.94;10225985;29;20126;-72
2022/04/11 21:36:28;;;;;;;3.90;3.17;;;;;;;4.89;61.79;100286.66;10224974;29;20046;-73
2022/04/11 21:41:29;;;;;;;5.53;3.78;;;;;;;4.80;62.71;100284.97;10226187;29;20044;-72
2022/04/11 21:46:31;;;;;;;6.15;4.20;;;;;;;4.65;62.67;100288.50;10227033;29;20091;-72
2022/04/11 21:51:33;;;;;;;4.57;4.10;;;;;;;4.47;63.49;100288.53;10225931;29;20046;-73
2022/04/11 21:56:39;;;;;;;5.90;5.25;;;;;;;4.30;63.78;100288.63;10223893;29;20046;-72
2022/04/11 22:01:41;;;;;;;8.30;6.57;;;;;;;4.36;64.66;100275.56;10223313;29;20044;-73
2022/04/11 22:06:43;;;;;;;9.63;7.70;;;;;;;4.52;63.96;100279.88;10221910;29;20079;-72
2022/04/11 22:11:45;;;;;;;9.55;7.45;;;;;;;4.20;64.99;100285.13;10221927;29;20043;-72
2022/04/11 22:16:46;;;;;;;10.52;8.75;;;;;;;4.13;64.94;100292.97;10221714;29;20051;-72
2022/04/11 22:21:48;;;;;;;11.65;8.20;;;;;;;4.04;65.87;100289.50;10205683;29;20043;-73
2022/04/11 22:26:50;;;;;;;13.95;7.47;;;;;;;4.16;65.13;100300.75;10224008;29;20459;-72
2022/04/11 22:31:51;;;;;;;14.02;11.25;;;;;;;4.16;64.77;100299.06;10222699;29;20054;-72
2022/04/11 22:36:53;;;;;;;12.20;9.30;;;;;;;3.85;66.52;100298.22;10221526;29;20044;-72
2022/04/11 22:41:55;;;;;;;11.15;8.80;;;;;;;4.03;66.69;100308.59;10222626;29;20428;-73
2022/04/11 22:46:56;;;;;;;10.65;8.80;;;;;;;3.88;66.85;100300.78;10189816;29;20131;-73
2022/04/11 22:52:02;;;;;;;12.52;8.80;;;;;;;3.84;67.18;100304.25;10220640;29;20043;-72
2022/04/11 22:57:04;;;;;;;12.43;8.25;;;;;;;3.65;68.07;100307.72;10221993;29;20039;-72
2022/04/11 23:02:06;;;;;;;12.40;9.73;;;;;;;3.90;67.21;100299.06;10223003;29;20047;-72
2022/04/11 23:07:08;;;;;;;11.60;8.90;;;;;;;3.38;68.52;100303.38;10222240;29;20471;-71
2022/04/11 23:12:10;;;;;;;14.30;10.30;;;;;;;3.30;69.35;100298.16;10222076;29;20052;-73
2022/04/11 23:17:12;;;;;;;13.65;7.28;;;;;;;3.50;68.97;100296.47;10220830;29;20042;-72
2022/04/11 23:22:13;;;;;;;8.90;6.63;;;;;;;3.15;69.22;100296.41;10222446;29;20062;-72
2022/04/11 23:27:15;;;;;;;7.70;5.95;;;;;;;2.99;69.67;100292.88;10220497;29;20039;-73
2022/04/11 23:32:17;;;;;;;8.88;6.95;;;;;;;3.50;68.89;100290.41;10222597;29;20048;-71
2022/04/11 23:37:18;;;;;;;11.68;7.25;;;;;;;2.99;69.84;100292.88;10220972;29;20096;-72